Time;durP1;ratioP1;P1;durP2;ratioP2;P2;SDS_P1;SDS_P2;PMS_P1;PMS_P2;Temp;Humidity;BMP_temperature;BMP_pressure;BME280_temperature;BME280_humidity;BME280_pressure;Samples;Min_cycle;Max_cycle;Signal;HPM_P1;HPM_P2
2023/04/04 00:01:15;;;;;;;5.57;1.57;;;3.10;90.80;;;;;;5036199;28;20071;-67
2023/04/04 00:03:41;;;;;;;2.20;1.10;;;3.10;90.90;;;;;;5037180;28;20497;-67
2023/04/04 00:06:07;;;;;;;6.37;1.67;;;3.10;91.00;;;;;;5018274;28;20033;-67
2023/04/04 00:08:33;;;;;;;2.38;1.08;;;3.00;91.40;;;;;;5036176;28;20026;-67
2023/04/04 00:11:02;;;;;;;1.63;1.00;;;3.00;91.30;;;;;;5036341;28;20099;-67
2023/04/04 00:13:27;;;;;;;3.90;1.42;;;3.00;91.30;;;;;;5047429;28;20083;-66
2023/04/04 00:15:53;;;;;;;2.25;1.00;;;3.00;91.40;;;;;;5038351;28;20025;-67
2023/04/04 00:18:19;;;;;;;2.05;1.23;;;2.90;91.40;;;;;;5035805;28;20041;-67
2023/04/04 00:20:45;;;;;;;3.72;1.67;;;2.90;91.40;;;;;;5036045;28;20535;-66
2023/04/04 00:23:10;;;;;;;5.97;1.10;;;2.90;91.50;;;;;;5035491;28;20033;-67
2023/04/04 00:25:36;;;;;;;2.80;1.20;;;2.90;91.60;;;;;;5038937;28;20429;-67
2023/04/04 00:28:02;;;;;;;2.10;1.30;;;2.80;91.90;;;;;;5035736;28;20024;-67
2023/04/04 00:30:28;;;;;;;2.83;1.10;;;2.80;92.00;;;;;;5035186;28;20039;-68
2023/04/04 00:32:55;;;;;;;2.63;1.08;;;2.80;92.10;;;;;;5035910;28;20370;-67
2023/04/04 00:35:20;;;;;;;3.63;1.30;;;2.80;92.20;;;;;;5036663;28;20029;-66
2023/04/04 00:37:46;;;;;;;2.00;1.30;;;2.70;92.30;;;;;;5018091;28;20032;-67
2023/04/04 00:40:12;;;;;;;7.30;1.55;;;2.70;92.40;;;;;;5036322;28;20030;-66
2023/04/04 00:42:38;;;;;;;3.50;1.20;;;2.70;92.50;;;;;;5035573;28;20026;-66
2023/04/04 00:45:06;;;;;;;5.00;1.42;;;2.70;92.60;;;;;;5034938;28;20040;-66
2023/04/04 00:47:32;;;;;;;3.53;1.17;;;2.60;92.70;;;;;;5048828;28;20025;-66
2023/04/04 00:49:58;;;;;;;2.88;1.45;;;2.60;92.90;;;;;;5037429;28;20334;-65
2023/04/04 00:52:23;;;;;;;3.47;1.67;;;2.60;93.00;;;;;;5047670;28;20026;-66
2023/04/04 00:54:49;;;;;;;3.50;1.53;;;2.50;93.10;;;;;;5048108;28;20033;-66
2023/04/04 00:57:15;;;;;;;3.33;1.33;;;2.60;93.10;;;;;;5049173;28;20028;-65
2023/04/04 00:59:42;;;;;;;3.42;1.10;;;2.60;93.20;;;;;;5034804;28;20272;-67
2023/04/04 01:02:08;;;;;;;3.15;1.20;;;2.50;93.20;;;;;;5048363;28;20036;-66
2023/04/04 01:04:34;;;;;;;6.85;1.70;;;2.50;93.40;;;;;;5055311;28;20021;-66
2023/04/04 01:07:01;;;;;;;5.32;1.50;;;2.50;93.50;;;;;;5054822;28;20040;-66
2023/04/04 01:09:27;;;;;;;2.60;1.40;;;2.50;93.60;;;;;;5039002;28;20022;-66
2023/04/04 01:11:54;;;;;;;2.95;1.45;;;2.40;93.70;;;;;;5034837;28;20030;-66
2023/04/04 01:14:20;;;;;;;6.07;1.58;;;2.50;93.80;;;;;;5034890;28;20048;-67
2023/04/04 01:16:49;;;;;;;4.22;1.20;;;2.40;93.80;;;;;;5033919;28;20486;-66
2023/04/04 01:19:23;;;;;;;3.83;1.20;;;2.40;93.90;;;;;;5043713;28;20029;-66
2023/04/04 01:21:50;;;;;;;4.78;1.40;;;2.30;94.00;;;;;;5034951;28;20021;-66
2023/04/04 01:24:17;;;;;;;3.15;1.20;;;2.30;94.10;;;;;;5036105;28;20018;-66
2023/04/04 01:26:42;;;;;;;5.07;1.45;;;2.30;94.10;;;;;;5035938;28;20032;-66
2023/04/04 01:29:08;;;;;;;2.37;1.30;;;2.30;94.40;;;;;;5039914;28;20036;-66
2023/04/04 01:31:38;;;;;;;4.40;2.07;;;2.30;94.60;;;;;;5055611;28;20025;-66
2023/04/04 01:34:25;;;;;;;4.30;1.58;;;2.30;94.50;;;;;;5054028;28;20020;-66
2023/04/04 01:37:02;;;;;;;4.90;1.30;;;2.30;94.70;;;;;;5042084;28;20087;-65
2023/04/04 01:39:38;;;;;;;6.82;1.50;;;2.20;94.60;;;;;;5018588;28;20394;-64
2023/04/04 01:42:06;;;;;;;4.47;1.60;;;2.20;94.60;;;;;;5034464;28;20091;-66
2023/04/04 01:44:32;;;;;;;6.03;1.38;;;2.20;94.70;;;;;;5032503;28;20509;-65
2023/04/04 01:46:58;;;;;;;5.88;1.20;;;2.20;94.70;;;;;;5054312;28;20025;-67
2023/04/04 01:49:23;;;;;;;2.50;1.70;;;2.20;94.80;;;;;;5054250;28;20033;-66
2023/04/04 01:51:51;;;;;;;5.13;1.20;;;2.10;94.90;;;;;;5027013;28;20037;-66
2023/04/04 01:54:17;;;;;;;4.95;2.08;;;2.10;95.00;;;;;;5035914;28;20021;-67
2023/04/04 01:56:44;;;;;;;6.30;1.50;;;2.10;95.10;;;;;;5053844;28;20017;-66
2023/04/04 01:59:10;;;;;;;5.47;1.42;;;2.20;95.20;;;;;;5053436;28;20028;-65
2023/04/04 02:01:35;;;;;;;3.92;1.40;;;2.10;95.20;;;;;;5035949;28;20025;-66
2023/04/04 02:04:02;;;;;;;4.00;1.50;;;2.10;95.30;;;;;;5036037;28;20029;-67
2023/04/04 02:06:28;;;;;;;3.67;1.10;;;2.00;95.40;;;;;;5053732;28;20386;-66
2023/04/04 02:08:53;;;;;;;5.55;1.35;;;2.00;95.50;;;;;;5041694;28;20025;-66
2023/04/04 02:11:21;;;;;;;3.40;1.40;;;2.00;95.50;;;;;;5033797;28;20026;-66
2023/04/04 02:13:47;;;;;;;3.40;1.40;;;2.00;95.50;;;;;;5035003;28;20072;-66
2023/04/04 02:16:14;;;;;;;3.70;1.40;;;2.00;95.60;;;;;;5033838;28;20033;-66
2023/04/04 02:18:40;;;;;;;2.67;1.23;;;2.00;95.70;;;;;;5034536;28;20112;-66
2023/04/04 02:21:05;;;;;;;2.28;1.27;;;1.90;95.90;;;;;;5053604;28;20059;-66
2023/04/04 02:23:31;;;;;;;3.53;1.40;;;1.80;96.00;;;;;;5036794;28;20061;-66
2023/04/04 02:25:56;;;;;;;3.03;1.60;;;1.80;96.10;;;;;;5033653;28;20557;-66
2023/04/04 02:28:22;;;;;;;4.00;1.50;;;1.80;96.20;;;;;;5015846;28;20030;-66
2023/04/04 02:30:47;;;;;;;2.93;1.33;;;1.80;96.30;;;;;;5015490;28;20025;-65
2023/04/04 02:33:13;;;;;;;6.53;1.50;;;1.80;96.40;;;;;;5017619;28;20389;-67
2023/04/04 02:35:38;;;;;;;3.20;1.40;;;1.80;96.40;;;;;;5053664;28;20031;-66
2023/04/04 02:38:04;;;;;;;3.90;1.87;;;1.80;96.50;;;;;;5053644;28;20025;-67
2023/04/04 02:40:29;;;;;;;2.97;1.20;;;1.70;96.40;;;;;;5053010;28;20032;-66
2023/04/04 02:42:55;;;;;;;4.67;2.27;;;1.70;96.70;;;;;;5035302;28;20025;-66
2023/04/04 02:45:21;;;;;;;3.33;1.63;;;1.70;96.70;;;;;;5039680;28;20026;-67
2023/04/04 02:47:50;;;;;;;4.45;1.48;;;1.70;96.80;;;;;;5033612;28;20087;-65
2023/04/04 02:50:16;;;;;;;2.53;1.38;;;1.70;96.90;;;;;;5033101;28;20014;-66
2023/04/04 02:52:41;;;;;;;4.83;1.60;;;1.60;97.00;;;;;;5043505;28;20075;-65
2023/04/04 02:55:07;;;;;;;4.93;1.40;;;1.60;97.10;;;;;;5029949;28;20029;-66
2023/04/04 02:57:33;;;;;;;4.13;1.43;;;1.60;97.20;;;;;;5015211;28;20129;-66
2023/04/04 02:59:59;;;;;;;2.03;1.27;;;1.50;97.20;;;;;;5015159;28;20533;-66
2023/04/04 03:02:24;;;;;;;2.93;1.40;;;1.50;97.40;;;;;;5033436;28;20434;-66
2023/04/04 03:04:51;;;;;;;3.45;1.63;;;1.50;97.50;;;;;;5034289;28;20025;-66
2023/04/04 03:07:16;;;;;;;5.78;1.83;;;1.50;97.40;;;;;;5034897;28;20038;-66
2023/04/04 03:09:44;;;;;;;3.37;1.30;;;1.50;97.60;;;;;;5015259;28;20022;-65
2023/04/04 03:12:10;;;;;;;2.22;1.35;;;1.50;97.60;;;;;;5015236;28;20033;-65
2023/04/04 03:14:36;;;;;;;4.85;1.30;;;1.50;97.70;;;;;;5015187;28;20036;-66
2023/04/04 03:17:02;;;;;;;3.00;1.40;;;1.40;97.80;;;;;;5016369;28;20041;-66
2023/04/04 03:19:27;;;;;;;4.05;1.40;;;1.50;97.80;;;;;;5032907;28;20677;-65
2023/04/04 03:21:53;;;;;;;8.57;1.57;;;1.40;97.80;;;;;;5033477;28;20029;-65
2023/04/04 03:24:18;;;;;;;2.43;1.33;;;1.40;98.10;;;;;;5033166;28;20022;-65
2023/04/04 03:26:44;;;;;;;5.53;1.57;;;1.40;98.10;;;;;;5015406;28;20032;-65
2023/04/04 03:29:09;;;;;;;2.67;1.07;;;1.40;98.30;;;;;;5017478;28;20100;-65
2023/04/04 03:31:35;;;;;;;2.77;1.40;;;1.40;98.20;;;;;;5035797;28;20025;-65
2023/04/04 03:34:01;;;;;;;3.90;1.53;;;1.30;98.40;;;;;;5053657;28;20135;-65
2023/04/04 03:36:26;;;;;;;1.90;1.30;;;1.30;98.60;;;;;;5052849;28;20082;-66
2023/04/04 03:38:52;;;;;;;2.70;1.73;;;1.30;98.50;;;;;;5050859;28;20430;-66
2023/04/04 03:41:17;;;;;;;5.77;2.17;;;1.20;98.60;;;;;;5053174;28;20512;-66
2023/04/04 03:43:44;;;;;;;4.50;1.67;;;1.20;98.60;;;;;;5053003;28;20040;-65
2023/04/04 03:46:09;;;;;;;2.33;1.25;;;1.20;98.70;;;;;;5052711;28;20053;-65
2023/04/04 03:48:35;;;;;;;3.17;1.20;;;1.20;98.80;;;;;;5043303;28;20030;-66
2023/04/04 03:51:03;;;;;;;4.03;1.80;;;1.20;98.90;;;;;;5032473;28;20091;-66
2023/04/04 03:53:28;;;;;;;3.30;1.63;;;1.10;99.10;;;;;;5034263;28;20059;-66
2023/04/04 03:55:55;;;;;;;5.83;1.60;;;1.20;99.10;;;;;;5036729;28;20104;-65
2023/04/04 03:58:22;;;;;;;5.35;1.48;;;1.20;99.20;;;;;;5056822;28;20029;-64
2023/04/04 04:00:48;;;;;;;5.07;1.67;;;1.10;99.30;;;;;;5037051;28;20052;-66
2023/04/04 04:03:13;;;;;;;3.45;1.67;;;1.10;99.40;;;;;;5037038;28;20030;-65
2023/04/04 04:05:39;;;;;;;3.53;1.50;;;1.10;99.50;;;;;;5048818;28;20087;-65
2023/04/04 04:08:04;;;;;;;3.77;1.30;;;1.10;99.70;;;;;;5057402;28;20035;-66
2023/04/04 04:10:31;;;;;;;3.47;1.52;;;1.10;99.70;;;;;;5037521;28;20021;-65
2023/04/04 04:12:57;;;;;;;3.25;1.45;;;1.00;99.70;;;;;;5038569;28;20037;-66
2023/04/04 04:15:23;;;;;;;6.55;2.00;;;1.00;99.90;;;;;;5049347;28;20562;-66
2023/04/04 04:17:48;;;;;;;3.20;1.30;;;1.00;99.90;;;;;;5036466;28;20055;-66
2023/04/04 04:20:14;;;;;;;3.40;1.30;;;1.00;99.90;;;;;;5040499;28;20103;-66
2023/04/04 04:22:46;;;;;;;2.67;1.63;;;1.00;99.90;;;;;;5048724;28;20040;-65
2023/04/04 04:25:12;;;;;;;3.88;1.63;;;0.90;99.90;;;;;;5036952;28;20026;-66
2023/04/04 04:27:37;;;;;;;4.53;1.70;;;0.90;99.90;;;;;;5044245;28;20100;-66
2023/04/04 04:30:03;;;;;;;3.77;1.30;;;1.00;99.90;;;;;;5056111;28;20033;-66
2023/04/04 04:32:29;;;;;;;3.22;1.60;;;0.90;99.90;;;;;;5038357;28;20478;-65
2023/04/04 04:34:55;;;;;;;4.97;1.93;;;0.90;99.90;;;;;;5018089;28;20163;-65
2023/04/04 04:37:20;;;;;;;4.30;1.67;;;0.90;99.90;;;;;;5052814;28;20104;-65
2023/04/04 04:39:46;;;;;;;4.40;1.80;;;0.90;99.90;;;;;;5037794;28;20033;-65
2023/04/04 04:42:11;;;;;;;4.27;1.50;;;0.90;99.90;;;;;;5053370;28;20052;-66
2023/04/04 04:44:37;;;;;;;6.13;1.50;;;0.80;99.90;;;;;;5056167;28;20032;-65
2023/04/04 04:47:03;;;;;;;3.57;1.73;;;0.90;99.90;;;;;;5051920;28;20087;-66
2023/04/04 04:49:29;;;;;;;4.38;1.73;;;0.80;99.90;;;;;;5050115;28;20028;-66
2023/04/04 04:51:54;;;;;;;4.03;1.60;;;0.80;99.90;;;;;;5043872;28;20029;-65
2023/04/04 04:54:20;;;;;;;3.80;1.58;;;0.80;99.90;;;;;;5042721;28;20029;-66
2023/04/04 04:56:46;;;;;;;3.07;1.80;;;0.80;99.90;;;;;;5035175;28;20104;-66
2023/04/04 04:59:12;;;;;;;7.57;1.70;;;0.70;99.90;;;;;;5035292;28;20067;-67
2023/04/04 05:01:38;;;;;;;4.38;1.73;;;0.70;99.90;;;;;;5035410;28;20017;-67
2023/04/04 05:04:03;;;;;;;6.07;2.60;;;0.70;99.90;;;;;;5036465;28;20033;-67
2023/04/04 05:06:29;;;;;;;4.87;2.33;;;0.70;99.90;;;;;;5017620;28;20026;-66
2023/04/04 05:08:54;;;;;;;3.03;1.50;;;0.70;99.90;;;;;;5034136;28;20021;-67
2023/04/04 05:11:20;;;;;;;4.67;1.80;;;0.60;99.90;;;;;;5035441;28;20633;-67
2023/04/04 05:13:46;;;;;;;3.50;1.33;;;0.70;99.90;;;;;;5035901;28;20037;-67
2023/04/04 05:16:12;;;;;;;3.30;1.67;;;0.70;99.90;;;;;;5035210;28;20369;-66
2023/04/04 05:18:37;;;;;;;4.28;2.00;;;0.70;99.90;;;;;;5034651;28;20029;-66
2023/04/04 05:21:03;;;;;;;3.67;1.70;;;0.80;99.90;;;;;;5020963;28;20212;-66
2023/04/04 05:23:28;;;;;;;4.70;1.50;;;0.70;99.90;;;;;;5055386;28;20082;-66
2023/04/04 05:25:54;;;;;;;2.63;1.33;;;0.70;99.90;;;;;;5043334;28;20034;-67
2023/04/04 05:28:20;;;;;;;3.30;2.77;;;0.60;99.90;;;;;;5034673;28;20072;-66
2023/04/04 05:30:46;;;;;;;5.10;1.98;;;0.70;99.90;;;;;;5034927;28;20055;-66
2023/04/04 05:33:12;;;;;;;4.00;1.48;;;0.70;99.90;;;;;;5034976;28;20033;-66
2023/04/04 05:35:37;;;;;;;2.00;1.55;;;0.80;99.90;;;;;;5033510;28;20021;-66
2023/04/04 05:38:03;;;;;;;3.00;1.60;;;0.70;99.90;;;;;;5035348;28;20079;-66
2023/04/04 05:40:29;;;;;;;6.47;1.87;;;0.70;99.90;;;;;;5035085;28;20264;-66
2023/04/04 05:42:59;;;;;;;4.73;1.43;;;0.80;99.90;;;;;;5036229;28;20025;-67
2023/04/04 05:45:25;;;;;;;3.35;1.58;;;0.80;99.90;;;;;;5055759;28;20665;-67
2023/04/04 05:47:51;;;;;;;5.75;1.83;;;0.80;99.90;;;;;;5038879;28;20040;-66
2023/04/04 05:50:17;;;;;;;2.53;1.63;;;0.90;99.90;;;;;;5035688;28;20021;-66
2023/04/04 05:52:43;;;;;;;3.63;1.80;;;0.90;99.90;;;;;;5035192;28;20451;-66
2023/04/04 05:55:08;;;;;;;2.47;1.60;;;0.90;99.90;;;;;;5037784;28;20106;-65
2023/04/04 05:57:34;;;;;;;4.28;1.83;;;0.90;99.90;;;;;;5028777;28;20021;-66
2023/04/04 06:00:00;;;;;;;3.27;1.40;;;0.90;99.90;;;;;;5034718;28;20041;-66
2023/04/04 06:02:25;;;;;;;3.17;1.43;;;1.00;99.90;;;;;;5033900;28;20113;-67
2023/04/04 06:04:51;;;;;;;2.77;1.80;;;1.00;99.90;;;;;;5042768;28;20017;-66
2023/04/04 06:07:17;;;;;;;3.30;1.40;;;1.10;99.90;;;;;;5016459;28;20113;-66
2023/04/04 06:09:43;;;;;;;5.88;1.88;;;1.10;99.90;;;;;;5052853;28;20051;-66
2023/04/04 06:12:09;;;;;;;5.40;2.05;;;1.10;99.90;;;;;;5053726;28;20439;-69
2023/04/04 06:14:35;;;;;;;5.50;1.40;;;1.20;99.90;;;;;;5053681;28;20547;-71
2023/04/04 06:17:01;;;;;;;3.75;1.58;;;1.20;99.90;;;;;;5053199;28;20075;-70
2023/04/04 06:19:27;;;;;;;4.45;1.83;;;1.30;99.90;;;;;;5042075;28;20497;-71
2023/04/04 06:21:52;;;;;;;4.03;1.63;;;1.30;99.90;;;;;;5034744;28;20026;-70
2023/04/04 06:24:18;;;;;;;5.10;2.03;;;1.30;99.90;;;;;;5053425;28;20506;-66
2023/04/04 06:26:44;;;;;;;6.90;1.73;;;1.40;99.90;;;;;;5053556;28;20493;-66
2023/04/04 06:29:09;;;;;;;5.20;1.70;;;1.40;99.90;;;;;;5051503;28;20283;-65
2023/04/04 06:31:35;;;;;;;3.63;1.60;;;1.40;99.90;;;;;;5023959;28;20056;-65
2023/04/04 06:34:01;;;;;;;5.65;2.10;;;1.50;99.90;;;;;;5033332;28;20021;-66
2023/04/04 06:36:26;;;;;;;5.77;1.83;;;1.50;99.90;;;;;;5024848;28;20135;-66
2023/04/04 06:38:52;;;;;;;3.97;1.83;;;1.70;99.90;;;;;;5053514;28;20036;-65
2023/04/04 06:41:17;;;;;;;4.30;1.93;;;1.80;99.90;;;;;;5052809;28;20063;-65
2023/04/04 06:43:45;;;;;;;6.97;1.90;;;1.80;99.90;;;;;;5044686;28;20037;-66
2023/04/04 06:46:11;;;;;;;4.32;1.98;;;1.80;99.90;;;;;;5033338;28;20091;-70
2023/04/04 06:48:37;;;;;;;4.22;1.83;;;1.90;99.90;;;;;;5016216;28;20025;-69
2023/04/04 06:51:07;;;;;;;3.83;1.90;;;2.00;99.90;;;;;;5025406;28;20457;-68
2023/04/04 06:53:33;;;;;;;4.88;1.60;;;2.00;99.90;;;;;;5050785;28;20024;-69
2023/04/04 06:55:59;;;;;;;3.42;1.60;;;2.10;99.70;;;;;;5054647;28;20021;-69
2023/04/04 06:58:25;;;;;;;3.95;2.10;;;2.10;99.50;;;;;;5053005;28;20092;-71
2023/04/04 07:00:50;;;;;;;6.03;2.47;;;2.20;99.40;;;;;;5052973;28;20021;-69
2023/04/04 07:03:16;;;;;;;4.13;2.27;;;2.40;99.30;;;;;;5018494;28;20026;-68
2023/04/04 07:05:42;;;;;;;6.07;1.90;;;2.40;99.20;;;;;;5047968;28;20041;-70
2023/04/04 07:08:08;;;;;;;4.37;1.83;;;2.50;98.90;;;;;;5021801;28;20029;-69
2023/04/04 07:10:34;;;;;;;4.57;1.88;;;2.50;98.50;;;;;;5033534;28;20264;-70
2023/04/04 07:12:59;;;;;;;5.20;1.90;;;2.50;98.50;;;;;;5033700;28;20395;-70
2023/04/04 07:15:26;;;;;;;8.23;2.03;;;2.60;98.20;;;;;;5019002;28;20029;-69
2023/04/04 07:17:52;;;;;;;5.38;1.80;;;2.60;98.20;;;;;;5026246;28;20030;-70
2023/04/04 07:20:18;;;;;;;5.00;1.85;;;2.60;98.20;;;;;;5015912;28;20035;-66
2023/04/04 07:22:43;;;;;;;6.23;1.83;;;2.70;97.80;;;;;;5035670;28;20033;-66
2023/04/04 07:25:09;;;;;;;3.53;2.03;;;2.90;97.80;;;;;;5053291;28;20515;-66
2023/04/04 07:27:35;;;;;;;5.00;2.10;;;2.90;97.00;;;;;;5040233;28;20049;-65
2023/04/04 07:30:01;;;;;;;3.30;1.80;;;3.00;97.50;;;;;;5032711;28;20033;-66
2023/04/04 07:32:28;;;;;;;4.18;1.95;;;3.10;99.50;;;;;;5034133;28;20060;-66
2023/04/04 07:34:54;;;;;;;3.47;1.83;;;3.20;97.60;;;;;;5044348;28;20025;-72
2023/04/04 07:37:20;;;;;;;2.63;1.73;;;3.30;96.50;;;;;;5039933;28;20035;-71
2023/04/04 07:39:48;;;;;;;3.30;1.85;;;3.40;96.30;;;;;;5045777;28;20033;-70
2023/04/04 07:42:15;;;;;;;7.13;1.90;;;3.50;95.80;;;;;;5026636;28;20025;-67
2023/04/04 07:44:40;;;;;;;3.17;2.00;;;3.50;95.50;;;;;;5041907;28;20128;-67
2023/04/04 07:47:07;;;;;;;5.53;2.17;;;3.50;95.30;;;;;;5053987;28;20033;-65
2023/04/04 07:49:32;;;;;;;3.08;1.70;;;3.40;95.00;;;;;;5056678;28;20040;-66
2023/04/04 07:51:58;;;;;;;6.00;2.17;;;3.40;95.00;;;;;;5032932;28;20475;-65
2023/04/04 07:54:24;;;;;;;4.17;1.87;;;3.50;95.10;;;;;;5050204;28;20428;-66
2023/04/04 07:56:50;;;;;;;5.30;1.90;;;3.60;94.70;;;;;;5040650;28;20025;-65
2023/04/04 07:59:16;;;;;;;6.18;2.05;;;3.70;94.50;;;;;;5056233;28;20390;-66
2023/04/04 08:01:41;;;;;;;4.83;1.83;;;3.70;94.50;;;;;;5029504;28;20075;-66
2023/04/04 08:04:07;;;;;;;3.00;1.70;;;3.80;94.20;;;;;;5052261;28;20025;-65
2023/04/04 08:06:33;;;;;;;3.50;1.97;;;3.90;93.80;;;;;;5051064;28;20056;-65
2023/04/04 08:08:58;;;;;;;6.35;2.30;;;3.90;93.80;;;;;;5056358;28;20100;-65
2023/04/04 08:11:24;;;;;;;5.80;1.80;;;4.00;93.60;;;;;;5055424;28;20029;-65
2023/04/04 08:13:50;;;;;;;6.77;2.13;;;4.00;93.10;;;;;;5050299;28;20056;-65
2023/04/04 08:16:16;;;;;;;5.93;2.33;;;4.10;93.20;;;;;;5035846;28;20029;-65
2023/04/04 08:18:41;;;;;;;7.73;2.20;;;4.30;92.80;;;;;;5018605;28;20033;-65
2023/04/04 08:21:07;;;;;;;6.13;1.93;;;4.50;92.20;;;;;;5021126;28;20276;-65
2023/04/04 08:23:33;;;;;;;3.53;1.90;;;4.50;92.10;;;;;;5055562;28;20025;-65
2023/04/04 08:25:59;;;;;;;4.72;2.03;;;4.60;92.00;;;;;;5055096;28;20057;-66
2023/04/04 08:28:26;;;;;;;9.50;2.10;;;4.80;91.50;;;;;;5055739;28;20048;-65
2023/04/04 08:30:53;;;;;;;6.28;2.35;;;4.90;91.00;;;;;;5036338;28;20033;-65
2023/04/04 08:33:19;;;;;;;4.00;1.65;;;4.90;90.70;;;;;;5036258;28;20036;-65
2023/04/04 08:35:45;;;;;;;5.05;2.00;;;5.00;90.70;;;;;;5039995;28;20378;-64
2023/04/04 08:38:10;;;;;;;7.80;1.90;;;5.10;90.50;;;;;;5034675;28;20032;-65
2023/04/04 08:40:37;;;;;;;2.60;1.70;;;5.30;89.40;;;;;;5037219;28;20025;-66
2023/04/04 08:43:04;;;;;;;4.55;1.63;;;5.30;89.40;;;;;;5021930;28;20033;-67
2023/04/04 08:45:32;;;;;;;5.05;1.75;;;5.50;89.20;;;;;;5057072;28;20032;-66
2023/04/04 08:48:00;;;;;;;4.57;1.90;;;5.80;87.80;;;;;;5042357;28;20055;-66
2023/04/04 08:50:27;;;;;;;4.97;2.10;;;5.90;87.20;;;;;;5035185;28;20390;-66
2023/04/04 08:52:53;;;;;;;3.85;1.95;;;7.00;85.20;;;;;;5035284;28;20028;-66
2023/04/04 08:55:20;;;;;;;3.83;2.00;;;9.30;79.80;;;;;;5020232;28;20036;-66
2023/04/04 08:57:45;;;;;;;5.63;1.80;;;11.30;72.40;;;;;;5052493;28;20026;-66
2023/04/04 09:00:13;;;;;;;4.40;1.67;;;12.90;67.50;;;;;;5055034;28;20538;-66
2023/04/04 09:02:47;;;;;;;6.07;1.67;;;13.70;64.10;;;;;;5055045;28;20043;-65
2023/04/04 09:05:14;;;;;;;3.28;1.80;;;15.30;60.80;;;;;;5034548;28;20017;-67
2023/04/04 09:07:41;;;;;;;3.95;1.90;;;17.10;57.60;;;;;;5036767;28;20048;-66
2023/04/04 09:10:10;;;;;;;4.85;1.70;;;17.80;54.50;;;;;;5055498;28;20127;-65
2023/04/04 09:12:40;;;;;;;6.03;2.05;;;18.10;53.10;;;;;;5048669;28;20390;-66
2023/04/04 09:15:06;;;;;;;2.22;1.50;;;17.30;52.40;;;;;;5037091;28;20029;-70
2023/04/04 09:17:32;;;;;;;2.78;1.48;;;16.20;53.20;;;;;;5034324;28;20496;-69
2023/04/04 09:20:03;;;;;;;3.37;1.47;;;15.40;53.40;;;;;;5040523;28;20111;-67
2023/04/04 09:22:28;;;;;;;11.00;2.20;;;15.10;54.00;;;;;;5018140;28;20390;-67
2023/04/04 09:24:55;;;;;;;3.10;1.73;;;14.40;54.60;;;;;;5050722;28;20025;-68
2023/04/04 09:27:21;;;;;;;3.95;1.73;;;14.90;54.30;;;;;;5054692;28;20025;-66
2023/04/04 09:29:46;;;;;;;5.13;1.90;;;15.00;54.50;;;;;;5054003;28;20509;-66
2023/04/04 09:32:15;;;;;;;3.70;1.43;;;16.10;53.20;;;;;;5054728;28;20029;-67
2023/04/04 09:34:42;;;;;;;5.25;1.63;;;17.10;51.60;;;;;;5054454;28;20509;-67
2023/04/04 09:37:09;;;;;;;5.88;2.35;;;16.70;51.90;;;;;;5053122;28;20025;-66
2023/04/04 09:39:37;;;;;;;3.22;1.60;;;16.30;51.60;;;;;;5042686;28;20099;-71
2023/04/04 09:42:06;;;;;;;2.47;1.52;;;15.00;51.20;;;;;;5035637;28;20435;-71
2023/04/04 09:44:33;;;;;;;3.20;1.50;;;15.20;52.10;;;;;;5016348;28;20025;-72
2023/04/04 09:47:27;;;;;;;3.55;1.45;;;15.40;53.00;;;;;;5034157;28;20022;-70
2023/04/04 09:49:59;;;;;;;5.68;2.20;;;17.00;51.60;;;;;;5034184;28;20031;-72
2023/04/04 09:52:25;;;;;;;3.13;1.38;;;16.80;51.50;;;;;;5034166;28;20443;-68
2023/04/04 09:55:09;;;;;;;4.18;1.70;;;17.40;51.80;;;;;;5033434;28;20053;-69
2023/04/04 09:57:36;;;;;;;3.80;1.90;;;16.10;49.90;;;;;;5016488;28;20091;-71
2023/04/04 10:00:08;;;;;;;3.97;1.95;;;15.50;51.70;;;;;;5032419;28;20029;-71
2023/04/04 10:02:36;;;;;;;3.83;1.80;;;17.10;50.60;;;;;;5044776;28;20021;-72
2023/04/04 10:05:09;;;;;;;5.78;2.17;;;18.00;50.10;;;;;;5022546;28;20032;-70
2023/04/04 10:07:38;;;;;;;4.55;1.77;;;17.80;49.40;;;;;;5033986;28;20048;-68
2023/04/04 10:10:08;;;;;;;5.65;2.10;;;18.50;49.10;;;;;;5035234;28;20026;-68
2023/04/04 10:12:33;;;;;;;6.05;1.60;;;18.60;48.60;;;;;;5017776;28;20128;-68
2023/04/04 10:14:59;;;;;;;3.85;1.70;;;18.50;49.60;;;;;;5033993;28;20096;-68
2023/04/04 10:17:35;;;;;;;2.80;1.75;;;19.30;47.80;;;;;;5033855;28;20087;-68
2023/04/04 10:20:05;;;;;;;4.43;1.85;;;19.50;48.30;;;;;;5034086;28;20110;-68
2023/04/04 10:22:32;;;;;;;4.03;2.25;;;19.90;47.60;;;;;;5033237;28;20026;-69
2023/04/04 10:24:58;;;;;;;3.97;2.30;;;19.90;47.70;;;;;;5050307;28;20023;-68
2023/04/04 10:27:24;;;;;;;4.00;1.88;;;19.50;46.70;;;;;;5036123;28;20017;-68
2023/04/04 10:29:51;;;;;;;3.10;1.75;;;17.30;47.80;;;;;;5053182;28;20043;-67
2023/04/04 10:32:28;;;;;;;4.28;1.92;;;15.80;49.90;;;;;;5053270;28;20017;-65
2023/04/04 10:35:04;;;;;;;3.88;1.77;;;15.90;50.60;;;;;;5053242;28;20071;-65
2023/04/04 10:37:39;;;;;;;3.63;1.90;;;16.30;50.30;;;;;;5053265;28;20138;-66
2023/04/04 10:40:12;;;;;;;5.55;1.85;;;18.10;49.30;;;;;;5053482;28;20020;-65
2023/04/04 10:42:40;;;;;;;4.60;1.90;;;18.70;47.90;;;;;;5053545;28;20024;-65
2023/04/04 10:45:11;;;;;;;3.40;1.63;;;17.40;48.40;;;;;;5052871;28;20377;-68
2023/04/04 10:47:38;;;;;;;3.28;1.63;;;16.90;48.60;;;;;;5053060;28;20474;-67
2023/04/04 10:50:10;;;;;;;3.03;1.88;;;17.10;49.00;;;;;;5052851;28;20025;-67
2023/04/04 10:52:42;;;;;;;4.68;1.92;;;17.30;48.50;;;;;;5052640;28;20028;-69
2023/04/04 10:55:12;;;;;;;4.18;1.67;;;17.40;49.30;;;;;;5034501;28;20032;-67
2023/04/04 10:57:42;;;;;;;4.97;2.08;;;16.70;48.60;;;;;;5020712;28;20225;-66
2023/04/04 11:00:10;;;;;;;3.63;2.35;;;16.60;49.40;;;;;;5035784;28;20108;-67
2023/04/04 11:02:53;;;;;;;3.58;2.08;;;17.20;49.30;;;;;;5053365;28;20029;-66
2023/04/04 11:05:21;;;;;;;3.78;2.05;;;17.20;48.90;;;;;;5035548;28;20048;-66
2023/04/04 11:07:58;;;;;;;6.65;1.80;;;16.10;49.50;;;;;;5037546;28;20021;-66
2023/04/04 11:10:26;;;;;;;5.18;1.95;;;16.30;49.70;;;;;;5047774;28;20059;-66
2023/04/04 11:12:54;;;;;;;4.22;2.00;;;15.30;50.30;;;;;;5023075;28;20426;-67
2023/04/04 11:15:21;;;;;;;3.80;2.10;;;14.20;51.90;;;;;;5023269;28;20075;-67
2023/04/04 11:18:00;;;;;;;4.78;1.90;;;12.50;53.60;;;;;;5021952;28;20167;-65
2023/04/04 11:20:30;;;;;;;4.13;2.10;;;11.40;55.10;;;;;;5038374;28;20473;-66
2023/04/04 11:23:13;;;;;;;3.58;1.90;;;10.20;56.90;;;;;;5037476;28;20075;-68
2023/04/04 11:25:55;;;;;;;3.97;2.15;;;9.40;58.10;;;;;;5019181;28;20022;-66
2023/04/04 11:28:26;;;;;;;4.70;2.10;;;9.20;59.40;;;;;;5036715;28;20083;-66
2023/04/04 11:31:17;;;;;;;3.95;1.77;;;8.90;59.30;;;;;;5036791;28;20021;-68
2023/04/04 11:34:07;;;;;;;6.13;2.58;;;8.70;60.70;;;;;;5037236;28;20029;-66
2023/04/04 11:36:36;;;;;;;4.03;2.00;;;8.60;60.80;;;;;;5037302;28;20112;-66
2023/04/04 11:39:15;;;;;;;6.00;2.10;;;8.40;61.00;;;;;;5036144;28;20053;-66
2023/04/04 11:42:09;;;;;;;5.15;2.17;;;8.40;60.50;;;;;;5036438;28;20389;-67
2023/04/04 11:44:50;;;;;;;4.78;2.20;;;8.20;60.50;;;;;;5018891;28;20059;-67
2023/04/04 11:47:21;;;;;;;4.68;2.13;;;8.20;61.60;;;;;;5036790;28;20017;-66
2023/04/04 11:49:48;;;;;;;5.30;2.65;;;8.20;61.80;;;;;;5056349;28;20108;-65
2023/04/04 11:52:16;;;;;;;4.82;2.13;;;8.20;62.40;;;;;;5056887;28;20025;-67
2023/04/04 11:54:43;;;;;;;8.60;2.00;;;8.30;61.90;;;;;;5038032;28;20170;-67
2023/04/04 11:57:14;;;;;;;4.88;2.00;;;8.40;62.30;;;;;;5056013;28;20032;-67
2023/04/04 11:59:40;;;;;;;4.72;2.13;;;8.50;61.80;;;;;;5055754;28;20024;-66
2023/04/04 12:02:10;;;;;;;7.43;2.85;;;8.40;61.40;;;;;;5056170;28;20025;-66
2023/04/04 12:04:36;;;;;;;5.47;2.30;;;8.20;61.60;;;;;;5026666;28;20061;-66
2023/04/04 12:07:05;;;;;;;3.28;2.00;;;8.20;61.80;;;;;;5034698;28;20433;-66
2023/04/04 12:09:32;;;;;;;6.03;2.05;;;8.30;62.90;;;;;;5019360;28;20059;-67
2023/04/04 12:11:58;;;;;;;4.28;2.25;;;8.30;62.10;;;;;;5055618;28;20060;-66
2023/04/04 12:14:26;;;;;;;5.33;2.00;;;8.40;62.50;;;;;;5049389;28;20397;-67
2023/04/04 12:16:56;;;;;;;5.53;2.45;;;8.50;62.00;;;;;;5056215;28;20052;-65
2023/04/04 12:19:22;;;;;;;4.55;2.38;;;8.50;61.70;;;;;;5038049;28;20024;-67
2023/04/04 12:21:49;;;;;;;4.75;2.40;;;8.40;62.00;;;;;;5056317;28;20036;-67
2023/04/04 12:24:15;;;;;;;6.60;2.60;;;8.60;62.00;;;;;;5023773;28;20029;-66
2023/04/04 12:26:43;;;;;;;5.38;1.95;;;8.70;61.50;;;;;;5037793;28;20390;-66
2023/04/04 12:29:11;;;;;;;8.13;2.55;;;8.70;62.00;;;;;;5039235;28;20029;-64
2023/04/04 12:31:40;;;;;;;5.45;2.30;;;8.70;61.90;;;;;;5051869;28;20033;-65
2023/04/04 12:34:07;;;;;;;6.45;3.08;;;8.50;61.40;;;;;;5051265;28;20040;-68
2023/04/04 12:36:37;;;;;;;3.58;1.85;;;8.40;62.40;;;;;;5036147;28;20021;-70
2023/04/04 12:39:12;;;;;;;5.65;2.20;;;8.40;62.30;;;;;;5046643;28;20029;-67
2023/04/04 12:42:04;;;;;;;4.82;1.83;;;8.50;62.60;;;;;;5037372;28;20025;-70
2023/04/04 12:44:31;;;;;;;3.25;2.10;;;8.50;62.20;;;;;;5049765;28;20653;-72
2023/04/04 12:46:59;;;;;;;10.32;2.60;;;8.50;62.80;;;;;;5035658;28;20378;-66
2023/04/04 12:49:43;;;;;;;4.88;1.98;;;8.70;62.90;;;;;;5035504;28;20104;-68
2023/04/04 12:52:30;;;;;;;6.53;2.53;;;8.80;62.50;;;;;;5017579;28;20021;-68
2023/04/04 12:54:59;;;;;;;4.47;1.90;;;9.00;62.00;;;;;;5037478;28;20021;-66
2023/04/04 12:57:26;;;;;;;4.00;2.20;;;9.10;61.70;;;;;;5055187;28;20074;-69